Otter Creek, Florida
Current Conditions -  °F | °C
As of 10:55 AM on Friday 24 Oct 2014 (Local Time) from KCGC Reporting Station
Clear Clear  
Wind Chill: 72°   Ceiling: Unl
Heat Index: 72°   Visibility: 10mi
Dew Point: 52°   Wind: 6mph
Humidity: 50%   Direction: 30°NNE
Pressure: 30.04"   Gusts: NA
Location:  29.32°N, 82.77°W
Report Text: KCGC 241455Z AUTO 03005KT 10SM CLR 22/11 A3004 RMK AO2 PWINO
Loading
Personal Weather Stations






























Interactive Weather Map
Tropical Storm Tracking
New forecast layout! Learn more

10-Day Weather Forecast

Advertisements
Track Severe Weather on mobile